Terminal Aerodrome Forecast
Issued by NWS Atlanta, GA

Home | Current Version | Previous Version | Text Only | Print | Product List | Glossary On
Versions: 1 2 3 4 5 6 7 8 9 10 11 12 13 14 15 16 17
004
FTUS42 KFFC 251726
TAFMCN
TAF
KMCN 251726Z 2518/2618 18006KT P6SM BKN060
     FM260200 00000KT P6SM FEW150
     FM261500 22004KT P6SM SCT150=

USA.gov is the U.S. government's official web portal to all federal, state and local government web resources and services.